Nordson Corp (NDSN) Latest Bloomsberg Price


Mffais Ranking #1861 Overall / #11 Industry
Industry: Flow Control Equipment

Number of Companies: 202 (Ranking #817 Overall/#7 Industry)
Inflow: $ 80,518 (K) (Ranking #1076 Overall/#7 Industry)
Outflow: $ -90,228 (K)
Mffais Flow: $ -9,709 (K) (Ranking #1861 Overall/#11 Industry)


Receive a FREE weekly executive review of stocks moving into the top 10, taking the top industy spot or moving up within their industry. Sent directly to your Inbox every Saturday. Sign up today and get last week's review immediately sent to you.

We value and respect your privacy. Please read our Terms and Conditions which states our firm commitment to your privacy. Your email address will not be shared with a third party, nor will it be sold or used for purposes other than subscription for the weekly review.

Owner CPOR Shares Action Qty Chg Invested (K) Total Current Value (K)
Lord Abbett Co Llc 2016-09-30 783,902 Added More 229,801 $ 20,061 $ 68,434
Kayne Anderson Rudnick Investment Management Llc 2016-09-30 337,744 Added More 98,491 $ 8,598 $ 29,485
Copeland Capital Management Llc 2016-09-30 195,618 Added More 86,134 $ 7,519 $ 17,077
Tiverton Asset Management Llc 2016-09-30 154,791 Added More 48,235 $ 4,210 $ 13,513
Edge Asset Management Inc 2016-09-30 325,049 Added More 43,326 $ 3,782 $ 28,376
Wbi Investments Inc 2016-09-30 42,191 New Holding 42,191 $ 3,683 $ 3,683
Robeco Institutional Asset Management B V 2016-09-30 41,921 Added More 36,780 $ 3,210 $ 3,659
C M Bidwell Associates Ltd 2016-09-30 35,610 New Holding 35,610 $ 3,108 $ 3,108
Twin Capital Management Inc 2016-09-30 32,826 New Holding 32,826 $ 2,865 $ 2,865
State Farm Mutual Automobile Insurance Co 2016-09-30 25,825 New Holding 25,825 $ 2,254 $ 2,254
Proshare Advisors Llc 2016-09-30 53,472 Added More 22,223 $ 1,940 $ 4,668
Ancora Inverness Llc 2016-09-30 20,245 New Holding 20,245 $ 1,767 $ 1,767
Insight Capital Research Management Inc 2016-09-30 20,069 New Holding 20,069 $ 1,752 $ 1,752
Cadence Capital Management Llc 2016-09-30 13,770 New Holding 13,770 $ 1,202 $ 1,202
Hanseatic Management Services Inc 2016-09-30 12,363 New Holding 12,363 $ 1,079 $ 1,079
Kennedy Capital Management Inc 2016-09-30 109,599 Added More 11,856 $ 1,035 $ 9,567
Albert D Mason Inc 2016-09-30 22,646 Added More 10,068 $ 878 $ 1,976
Lombard Odier Asset Management Usa Corp 2016-09-30 10,000 New Holding 10,000 $ 873 $ 873
Ct Mason 2016-09-30 35,767 Added More 8,110 $ 708 $ 3,122
Teachers Advisors Inc 2016-09-30 57,803 Added More 7,535 $ 657 $ 5,046
Turner Investments L P 2016-09-30 11,000 Added More 7,000 $ 611 $ 960
Dimensional Fund Advisors Lp 2016-09-30 398,222 Added More 6,995 $ 610 $ 34,764
Northern Trust Corp 2016-09-30 435,567 Added More 6,959 $ 607 $ 38,024
Driehaus Capital Management Llc 2016-09-30 13,151 Added More 5,651 $ 493 $ 1,148
Gsa Capital Partners Llp 2016-09-30 9,281 Added More 5,307 $ 463 $ 810
Blackrock Inc 2016-09-30 70,716 Added More 4,607 $ 402 $ 6,173
Alps Advisors Inc 2016-09-30 4,342 New Holding 4,342 $ 379 $ 379
Parametric Portfolio Associates Llc 2016-09-30 52,344 Added More 3,855 $ 336 $ 4,569
Rhumbline Advisers 2016-09-30 102,617 Added More 3,786 $ 330 $ 8,958
Dynamic Technology Lab Private Ltd 2016-09-30 3,667 New Holding 3,667 $ 320 $ 320
Verition Fund Management Llc 2016-09-30 3,557 New Holding 3,557 $ 310 $ 310
Gideon Capital Advisors Inc 2016-09-30 3,505 New Holding 3,505 $ 305 $ 305
Aperio Group Llc 2016-09-30 16,662 Added More 3,434 $ 299 $ 1,454
Cantab Capital Partners Llp 2016-09-30 6,375 Added More 3,314 $ 289 $ 556
Advisors Preferred Llc 2016-09-30 3,192 New Holding 3,192 $ 278 $ 278
A R T Advisors Llc 2016-09-30 3,100 New Holding 3,100 $ 270 $ 270
Tlp Group Llc 2016-09-30 2,811 New Holding 2,811 $ 245 $ 245
Brandywine Global Investment Management Llc 2016-09-30 13,224 Added More 2,751 $ 240 $ 1,154
Zebra Capital Management Llc 2016-09-30 20,654 Added More 2,644 $ 230 $ 1,803
Regions Financial Corp 2016-09-30 2,276 New Holding 2,276 $ 198 $ 198
Cookson Peirce Co Inc 2016-09-30 2,170 New Holding 2,170 $ 189 $ 189
Squarepoint Ops Llc 2016-09-30 2,085 New Holding 2,085 $ 182 $ 182
Caprock Group Inc 2016-09-30 2,082 New Holding 2,082 $ 181 $ 181
Panagora Asset Management Inc 2016-09-30 2,346 Added More 1,496 $ 130 $ 204
Mcdaniel Terry Co 2016-09-30 281,571 Added More 1,480 $ 129 $ 24,581
Stifel Financial Corp 2016-09-30 21,337 Added More 1,478 $ 129 $ 1,862
Pacad Investment Ltd 2016-09-30 1,400 New Holding 1,400 $ 122 $ 122
Cutler Group Lp 2016-09-30 2,200 Added More 1,122 $ 97 $ 192
Invictus Rg 2016-09-30 3,935 Added More 1,049 $ 91 $ 343
Walleye Trading Llc 2016-09-30 1,010 New Holding 1,010 $ 88 $ 88
California State Teachers Retirement System 2016-09-30 121,683 Added More 1,000 $ 87 $ 10,622
World Asset Management Inc 2016-09-30 3,513 Added More 896 $ 78 $ 306
Legal General Group Plc 2016-09-30 8,264 Added More 688 $ 60 $ 721
Johanson Financial Advisors Inc 2016-09-30 15,430 Added More 680 $ 59 $ 1,347
Eqis Capital Management Inc 2016-09-30 3,426 Added More 648 $ 56 $ 299
Pacer Advisors Inc 2016-09-30 5,130 Added More 509 $ 44 $ 447
Northwestern Mutual Investment Management Company Llc 2016-09-30 25,221 Added More 393 $ 34 $ 2,201
Oregon Public Employees Retirement Fund 2016-09-30 19,188 Added More 370 $ 32 $ 1,675
Fuller Thaler Asset Management Inc 2016-09-30 525 Added More 300 $ 26 $ 45
Essex Financial Services Inc 2016-09-30 3,100 Added More 300 $ 26 $ 270
Springbok Capital Management Llc 2016-09-30 506 Added More 274 $ 23 $ 44
United Services Automobile Association 2016-09-30 7,220 Added More 270 $ 23 $ 630
Ghp Investment Advisors Inc 2016-09-30 23,578 Added More 260 $ 22 $ 2,058
Us Bancorp De 2016-09-30 5,669 Added More 237 $ 20 $ 494
Kcg Holdings Inc 2016-09-30 6,805 Added More 235 $ 20 $ 594
Roffman Miller Associates Inc Pa 2016-09-30 149,241 Added More 213 $ 18 $ 13,028
Zurcher Kantonalbank Zurich Cantonalbank 2016-09-30 1,884 Added More 209 $ 18 $ 164
Ls Investment Advisors Llc 2016-09-30 3,510 Added More 184 $ 16 $ 306
Airain Ltd 2016-09-30 21,462 Added More 183 $ 15 $ 1,873
Mason Street Advisors Llc 2016-09-30 24,610 Added More 154 $ 13 $ 2,148
Creative Planning 2016-09-30 266 Added More 146 $ 12 $ 23
Mutual Of America Capital Management Llc 2016-09-30 40,055 Added More 119 $ 10 $ 3,496
Next Financial Group Inc 2016-09-30 95 New Holding 95 $ 8 $ 8
Brc Investment Management Llc 2016-09-30 8,059 Added More 85 $ 7 $ 703
Sii Investments Inc Wi 2016-09-30 20,747 Added More 75 $ 6 $ 1,811
Comerica Bank 2016-09-30 45,446 Added More 61 $ 5 $ 3,967
Advisor Group Inc 2016-09-30 1,341 Added More 61 $ 5 $ 117
Ifp Advisors Inc 2016-09-30 896 Added More 37 $ 3 $ 78
Ladenburg Thalmann Financial Services Inc 2016-09-30 1,056 Added More 35 $ 3 $ 92
Cullen Frost Bankers Inc 2016-09-30 2,512 Added More 12 $ 1 $ 219
Washington Trust Bank 2016-09-30 8 New Holding 8 $ 0 $ 0
Assetmark Inc 2016-09-30 47 Added More 4 $ 0 $ 4
Finemark National Bank Trust 2016-09-30 404 No Change 0 $ 0 $ 35
Babson Capital Management Llc 2016-09-30 2,500 No Change 0 $ 0 $ 218
Beck Mack Oliver Llc 2016-09-30 12,600 No Change 0 $ 0 $ 1,099
Teachers Retirement System Of The State Of Kentucky 2016-09-30 11,700 No Change 0 $ 0 $ 1,021
Valley National Advisers Inc 2016-09-30 597 No Change 0 $ 0 $ 52
Gamco Investors Inc Et Al 2016-09-30 40,000 No Change 0 $ 0 $ 3,492
Washington Capital Management Inc 2016-09-30 4,620 No Change 0 $ 0 $ 403
Nisa Investment Advisors Llc 2016-09-30 11,800 No Change 0 $ 0 $ 1,030
Dixon Hubard Feinour Brown Inc Va 2016-09-30 3,088 No Change 0 $ 0 $ 269
Intrust Bank Na 2016-09-30 3,289 No Change 0 $ 0 $ 287
Advantus Capital Management Inc 2016-09-30 6,495 No Change 0 $ 0 $ 567
Eaton Vance Management 2016-09-30 11,073 No Change 0 $ 0 $ 966
Firstmerit Bank N A Trustee 2016-06-30 45,489 No Change 0 $ 0 $ 3,803
Gabelli Funds Llc 2016-09-30 6,000 No Change 0 $ 0 $ 523
Kanaly Trust Co 2016-09-30 14 No Change 0 $ 0 $ 1
Pillar Pacific Capital Management Llc 2016-09-30 3,250 No Change 0 $ 0 $ 283
Bronfman E L Rothschild L P 2016-09-30 5 No Change 0 $ 0 $ 0
Whittier Trust Co 2016-09-30 280 No Change 0 $ 0 $ 24
Northwestern Mutual Wealth Management Co 2016-09-30 578 No Change 0 $ 0 $ 50
Prescott Group Capital Management L L C 2016-09-30 9,000 No Change 0 $ 0 $ 785
Proficio Capital Partners Llc 2016-09-30 209 No Change 0 $ 0 $ 18
Quadrant Capital Group Llc 2016-09-30 57 No Change 0 $ 0 $ 4
Weaver C Barksdale Associates Inc 2016-09-30 86 No Change 0 $ 0 $ 7
Gemmer Asset Management Llc 2016-09-30 195 No Change 0 $ 0 $ 17
Capital Advisors Ltd Llc 2016-09-30 564 No Change 0 $ 0 $ 49
State Of Tennessee Treasury Department 2016-09-30 18,500 No Change 0 $ 0 $ 1,615
Advisory Services Network Llc 2016-09-30 27 No Change 0 $ 0 $ 2
Winfield Associates Inc 2016-09-30 30 No Change 0 $ 0 $ 2
Financial Architects Inc 2016-09-30 826 No Change 0 $ 0 $ 72
Sonora Investment Management Llc 2016-09-30 150 No Change 0 $ 0 $ 13
Msi Financial Services Inc 2016-09-30 221 No Change 0 $ 0 $ 19
Qs Investors Llc 2016-09-30 5 No Change 0 $ 0 $ 0
Utah Retirement Systems 2016-09-30 10,412 No Change 0 $ 0 $ 908
Eulav Asset Management 2016-09-30 25,800 No Change 0 $ 0 $ 2,252
Cornerstone Advisors Inc 2016-09-30 407 No Change 0 $ 0 $ 35
Commonwealth Equity Services Inc 2016-09-30 2,728 Sold Some -9 $ -0 $ 238
Simplex Trading Llc 2016-09-30 0 Sold All -20 $ -1 $ 0
Hl Financial Services Llc 2016-09-30 5,454 Sold Some -22 $ -1 $ 476
Twin Tree Management Lp 2016-09-30 0 Sold All -22 $ -1 $ 0
Archford Capital Strategies Llc 2016-09-30 25 Sold Some -25 $ -2 $ 2
Ftb Advisors Inc 2016-09-30 263 Sold Some -29 $ -2 $ 22
Guggenheim Capital Llc 2016-09-30 3,163 Sold Some -32 $ -2 $ 276
Btim Corp 2016-09-30 243,047 Sold Some -35 $ -3 $ 21,218
Trust Co Of Vermont 2016-09-30 1,200 Sold Some -45 $ -3 $ 104
Independent Portfolio Consultants Inc 2016-09-30 1,825 Sold Some -100 $ -8 $ 159
Liberty Mutual Group Asset Management Inc 2016-09-30 23,155 Sold Some -100 $ -8 $ 2,021
Advisors Asset Management Inc 2016-09-30 1,300 Sold Some -100 $ -8 $ 113
Peoples United Financial Inc 2016-09-30 10,790 Sold Some -113 $ -9 $ 941
Sandy Spring Bank 2016-09-30 0 Sold All -125 $ -10 $ 0
Pnc Financial Services Group Inc 2016-09-30 2,332 Sold Some -182 $ -15 $ 203
Forward Management Llc 2016-09-30 0 Sold All -200 $ -17 $ 0
State Treasurer State Of Michigan 2016-09-30 21,360 Sold Some -200 $ -17 $ 1,864
Bryn Mawr Trust Co 2016-09-30 72,384 Sold Some -206 $ -17 $ 6,319
Capstone Asset Management Co 2016-09-30 5,276 Sold Some -210 $ -18 $ 460
M T Bank Corp 2016-09-30 6,742 Sold Some -261 $ -22 $ 588
Ibm Retirement Fund 2016-09-30 5,491 Sold Some -270 $ -23 $ 479
Arizona State Retirement System 2016-09-30 22,379 Sold Some -300 $ -26 $ 1,953
Skylands Capital Llc 2016-09-30 5,375 Sold Some -350 $ -30 $ 469
Rafferty Asset Management Llc 2016-09-30 6,336 Sold Some -430 $ -37 $ 553
Texas Permanent School Fund 2016-09-30 40,519 Sold Some -486 $ -42 $ 3,537
Howe Rusling Inc 2016-09-30 4,392 Sold Some -553 $ -48 $ 383
Vident Investment Advisory Llc 2016-09-30 10,225 Sold Some -623 $ -54 $ 892
Retirement Systems Of Alabama 2016-09-30 68,541 Sold Some -636 $ -55 $ 5,983
Tower Research Capital Llc Trc 2016-09-30 1,684 Sold Some -656 $ -57 $ 147
Eam Investors Llc 2016-09-30 28,356 Sold Some -738 $ -64 $ 2,475
Quantbot Technologies Lp 2016-09-30 2,859 Sold Some -751 $ -65 $ 249
Hsbc Holdings Plc 2016-09-30 6,632 Sold Some -808 $ -70 $ 578
Rice Hall James Associates Llc 2016-09-30 30,308 Sold Some -819 $ -71 $ 2,645
Profund Advisors Llc 2016-09-30 7,376 Sold Some -952 $ -83 $ 643
American International Group Inc 2016-09-30 102,487 Sold Some -1,022 $ -89 $ 8,947
Checchi Capital Advisers Llc 2016-09-30 0 Sold All -1,111 $ -96 $ 0
Chicago Equity Partners Llc 2016-09-30 15,085 Sold Some -1,180 $ -103 $ 1,316
Nationwide Fund Advisors 2016-09-30 89,625 Sold Some -1,268 $ -110 $ 7,824
Royce Associates Lp 2016-09-30 443,796 Sold Some -1,300 $ -113 $ 38,743
Livingston Group Asset Management Co Operating As Southport 2016-09-30 0 Sold All -1,445 $ -126 $ 0
Keybank National Association Oh 2016-09-30 686,824 Sold Some -1,638 $ -142 $ 59,959
Teacher Retirement System Of Texas 2016-09-30 5,857 Sold Some -1,782 $ -155 $ 511
Dupont Capital Management Corp 2016-09-30 48,625 Sold Some -2,068 $ -180 $ 4,244
Blackrock Investment Management Llc 2016-09-30 161,547 Sold Some -2,327 $ -203 $ 14,103
Usa Financial Portformulas Corp 2016-09-30 2,908 Sold Some -2,361 $ -206 $ 253
Bluecrest Capital Management Ltd 2016-09-30 0 Sold All -2,510 $ -219 $ 0
Ahl Partners Llp 2016-09-30 4,853 Sold Some -2,924 $ -255 $ 423
New York State Teachers Retirement System 2016-09-30 99,358 Sold Some -3,000 $ -261 $ 8,673
Bayesian Capital Management Lp 2016-09-30 5,718 Sold Some -3,000 $ -261 $ 499
Swiss National Bank 2016-09-30 88,100 Sold Some -3,200 $ -279 $ 7,691
Algert Global Llc 2016-09-30 0 Sold All -3,369 $ -294 $ 0
Tudor Investment Corp Et Al 2016-09-30 3,500 Sold Some -3,600 $ -314 $ 305
Thrivent Financial For Lutherans 2016-09-30 72,728 Sold Some -3,880 $ -338 $ 6,349
Diam Co Ltd 2016-09-30 40,286 Sold Some -3,956 $ -345 $ 3,516
Winslow Asset Management Inc 2016-09-30 119,350 Sold Some -3,956 $ -345 $ 10,419
Dynamic Capital Management Ltd 2016-09-30 21,655 Sold Some -4,093 $ -357 $ 1,890
Nuveen Asset Management Llc 2016-09-30 135,183 Sold Some -4,313 $ -376 $ 11,801
Hightower Advisors Llc 2016-09-30 12,577 Sold Some -4,634 $ -404 $ 1,097
Envestnet Asset Management Inc 2016-09-30 25,609 Sold Some -4,977 $ -434 $ 2,235
Shelton Capital Management 2016-09-30 0 Sold All -5,621 $ -490 $ 0
Synovus Financial Corp 2016-09-30 6,855 Sold Some -6,389 $ -557 $ 598
Omers Administration Corp 2016-09-30 14,500 Sold Some -7,400 $ -646 $ 1,265
Peak6 Investments L P 2016-09-30 3,000 Sold Some -7,700 $ -672 $ 261
Old Mutual Global Investors Uk Ltd 2016-09-30 979 Sold Some -8,256 $ -720 $ 85
Sei Investments Co 2016-09-30 17,145 Sold Some -8,269 $ -721 $ 1,496
Emerald Acquisition Ltd 2016-09-30 21,559 Sold Some -8,302 $ -724 $ 1,882
Princeton Alpha Management Lp 2016-09-30 0 Sold All -9,211 $ -804 $ 0
Raymond James Associates 2016-09-30 69,052 Sold Some -9,921 $ -866 $ 6,028
Quadrature Capital Ltd 2016-09-30 4,006 Sold Some -11,842 $ -1,033 $ 349
Sg Americas Securities Llc 2016-09-30 3,130 Sold Some -13,120 $ -1,145 $ 273
Trexquant Investment Lp 2016-09-30 0 Sold All -14,630 $ -1,277 $ 0
Vollero Beach Capital Partners Llc 2016-09-30 0 Sold All -15,000 $ -1,309 $ 0
New York State Common Retirement Fund 2016-09-30 183,437 Sold Some -15,700 $ -1,370 $ 16,014
Century Capital Management Llc 2016-09-30 38,595 Sold Some -18,735 $ -1,635 $ 3,369
Clinton Group Inc 2016-09-30 0 Sold All -18,925 $ -1,652 $ 0
Employees Retirement System Of Texas 2016-09-30 57,000 Sold Some -25,000 $ -2,182 $ 4,976
Kornitzer Capital Management Inc Ks 2016-09-30 32,630 Sold Some -26,020 $ -2,271 $ 2,848
Isthmus Partners Llc 2016-09-30 53,114 Sold Some -26,670 $ -2,328 $ 4,636
Fiera Capital Corp 2016-09-30 530,494 Sold Some -32,845 $ -2,867 $ 46,312
Capstone Investment Advisors Llc 2016-09-30 27,100 Sold Some -43,500 $ -3,797 $ 2,365
Timessquare Capital Management Llc 2016-09-30 132,000 Sold Some -57,800 $ -5,045 $ 11,523
Southernsun Asset Management Llc 2016-09-30 628,081 Sold Some -117,760 $ -10,280 $ 54,831
Sensato Investors Llc 2016-09-30 0 Sold All -121,286 $ -10,588 $ 0
I G Investment Management Ltd 2016-09-30 0 Sold All -150,000 $ -13,095 $ 0
Columbia Wanger Asset Management Llc 2016-09-30 565,085 Sold Some -174,325 $ -15,218 $ 49,331